Aérodrome :
LOGIN :

S'inscrire | Disclaimer

   EN    FR    IT 

 










Légende :    VFR   VFR Marginal   IFR   IFR Intensif   IFR Très Intensif
Visi : 
Plafond : 
>= 8 km
>= 3000ft
5 à 8 km
1000 à 3000 ft
1500m à 5 km
500 à 1000 ft
800 à 1500m
200 à 500 ft
< 800m
< 200 ft
Symboles :   Orages  Brouillard  Fortes neiges  Fortes précipitations  Vent > 20 kt
SIGMETs :   Divers  Orages  Givrage  Turbulence  Onde Orograph.  Cendres Volcan.







- Altitude de l'aérodrome : 2077 ft
- Code IATA : FMM


EDJA - Memmingen

DERNIER METAR :
  • 141250Z 21016KT 9999 SCT027 BKN034 02/M01 Q1002

METARs EXPIRÉS :
  • 141220Z 22015KT 9999 FEW020 SCT026 BKN034 02/M01 Q1003
  • 141150Z 21018KT 9999 FEW014 BKN080 01/M01 Q1003
  • 141120Z 22015KT 9999 FEW012 BKN094 01/M01 Q1003
  • 141050Z 23016KT 9999 SCT011 BKN021 01/M00 Q1003
  • 141020Z 22016KT 9999 SCT009 BKN073 01/M00 Q1004

TAF TAF EDJA
Valide du 14 à 12h jusqu'au 14 à 21h UTC


141100Z 1412/1421 23015G25KT 9999 SCT010 BKN020
TEMPO 1414/1416 4000 SHRASN BKN014TCU
TEMPO 1416/1420 2500 SNRA BKN008
Pas de NOTAMs connus pour ce terrain.



MET'MAP, la Météo Aéronautique d'un coup d'oeil ! - Copyright ORBIFLY Décembre 2007 - Disclaimer

ORBIFLY MET'MAP TEAM :

Programmation & Développement : Alexandra Zaïnal
Conception & Développement : Baudouin d'Aumeries
Co-Programmation & Développement : Marc-Olivier Méhu
Soutien technique & logistique : Manuel Goepfert

Contact : metmap@orbifly.com




SOURCES & CREDITS :

   NOAA